sensor_id;sensor_type;location;lat;lon;timestamp;pressure;altitude;pressure_sealevel;temperature;humidity
5966;BME280;3009;43.224;27.976;2022-07-17T00:02:14;100518.16;;;22.21;63.65
5966;BME280;3009;43.224;27.976;2022-07-17T00:04:43;100516.63;;;22.20;65.07
5966;BME280;3009;43.224;27.976;2022-07-17T00:07:11;100523.63;;;22.13;65.94
5966;BME280;3009;43.224;27.976;2022-07-17T00:09:40;100517.25;;;21.91;73.01
5966;BME280;3009;43.224;27.976;2022-07-17T00:12:08;100519.50;;;21.71;78.05
5966;BME280;3009;43.224;27.976;2022-07-17T00:14:38;100520.16;;;21.54;78.80
5966;BME280;3009;43.224;27.976;2022-07-17T00:17:07;100515.88;;;21.56;78.31
5966;BME280;3009;43.224;27.976;2022-07-17T00:19:35;100514.75;;;21.57;79.07
5966;BME280;3009;43.224;27.976;2022-07-17T00:22:03;100517.69;;;21.41;82.81
5966;BME280;3009;43.224;27.976;2022-07-17T00:24:31;100512.63;;;21.40;84.73
5966;BME280;3009;43.224;27.976;2022-07-17T00:27:00;100513.69;;;21.28;86.78
5966;BME280;3009;43.224;27.976;2022-07-17T00:29:28;100509.13;;;21.39;86.21
5966;BME280;3009;43.224;27.976;2022-07-17T00:31:58;100519.69;;;21.48;86.21
5966;BME280;3009;43.224;27.976;2022-07-17T00:34:26;100511.88;;;21.47;86.69
5966;BME280;3009;43.224;27.976;2022-07-17T00:36:54;100513.81;;;21.42;86.72
5966;BME280;3009;43.224;27.976;2022-07-17T00:39:23;100497.06;;;21.44;86.52
5966;BME280;3009;43.224;27.976;2022-07-17T00:41:51;100501.31;;;21.38;86.86
5966;BME280;3009;43.224;27.976;2022-07-17T00:44:19;100501.66;;;21.29;86.51
5966;BME280;3009;43.224;27.976;2022-07-17T00:46:47;100503.22;;;21.34;86.45
5966;BME280;3009;43.224;27.976;2022-07-17T00:49:17;100507.47;;;21.28;85.43
5966;BME280;3009;43.224;27.976;2022-07-17T00:51:45;100498.47;;;21.20;84.62
5966;BME280;3009;43.224;27.976;2022-07-17T00:54:15;100502.84;;;21.32;84.15
5966;BME280;3009;43.224;27.976;2022-07-17T00:56:46;100503.94;;;21.23;83.75
5966;BME280;3009;43.224;27.976;2022-07-17T00:59:15;100511.66;;;21.18;84.45
5966;BME280;3009;43.224;27.976;2022-07-17T01:01:45;100508.94;;;21.18;84.24
5966;BME280;3009;43.224;27.976;2022-07-17T01:04:14;100506.97;;;21.15;81.38
5966;BME280;3009;43.224;27.976;2022-07-17T01:06:44;100500.06;;;21.24;80.64
5966;BME280;3009;43.224;27.976;2022-07-17T01:09:12;100503.50;;;21.18;80.00
5966;BME280;3009;43.224;27.976;2022-07-17T01:11:41;100502.69;;;21.14;80.44
5966;BME280;3009;43.224;27.976;2022-07-17T01:14:10;100498.78;;;21.15;81.51
5966;BME280;3009;43.224;27.976;2022-07-17T01:16:39;100507.84;;;21.26;81.67
5966;BME280;3009;43.224;27.976;2022-07-17T01:19:10;100502.41;;;21.26;82.71
5966;BME280;3009;43.224;27.976;2022-07-17T01:21:40;100499.59;;;21.19;83.46
5966;BME280;3009;43.224;27.976;2022-07-17T01:24:09;100495.66;;;21.13;83.03
5966;BME280;3009;43.224;27.976;2022-07-17T01:26:40;100494.41;;;21.03;83.79
5966;BME280;3009;43.224;27.976;2022-07-17T01:29:09;100499.91;;;21.06;83.89
5966;BME280;3009;43.224;27.976;2022-07-17T01:31:40;100494.41;;;21.03;84.49
5966;BME280;3009;43.224;27.976;2022-07-17T01:34:12;100490.91;;;21.02;84.02
5966;BME280;3009;43.224;27.976;2022-07-17T01:36:44;100493.91;;;20.86;83.92
5966;BME280;3009;43.224;27.976;2022-07-17T01:39:13;100493.28;;;20.66;85.72
5966;BME280;3009;43.224;27.976;2022-07-17T01:41:44;100490.84;;;20.58;86.08
5966;BME280;3009;43.224;27.976;2022-07-17T01:44:12;100499.53;;;20.67;85.11
5966;BME280;3009;43.224;27.976;2022-07-17T01:46:40;100492.88;;;20.64;85.38
5966;BME280;3009;43.224;27.976;2022-07-17T01:49:08;100495.72;;;20.75;84.16
5966;BME280;3009;43.224;27.976;2022-07-17T01:51:37;100501.94;;;20.76;83.58
5966;BME280;3009;43.224;27.976;2022-07-17T01:54:06;100502.06;;;20.86;81.46
5966;BME280;3009;43.224;27.976;2022-07-17T01:56:35;100494.66;;;20.87;79.53
5966;BME280;3009;43.224;27.976;2022-07-17T01:59:03;100499.28;;;20.83;78.01
5966;BME280;3009;43.224;27.976;2022-07-17T02:01:33;100494.31;;;20.92;74.60
5966;BME280;3009;43.224;27.976;2022-07-17T02:04:01;100490.50;;;21.00;72.97
5966;BME280;3009;43.224;27.976;2022-07-17T02:06:29;100491.69;;;21.03;71.91
5966;BME280;3009;43.224;27.976;2022-07-17T02:08:58;100494.47;;;21.10;70.88
5966;BME280;3009;43.224;27.976;2022-07-17T02:11:27;100493.31;;;21.11;71.24
5966;BME280;3009;43.224;27.976;2022-07-17T02:13:56;100504.03;;;20.89;75.74
5966;BME280;3009;43.224;27.976;2022-07-17T02:16:24;100505.09;;;20.78;76.67
5966;BME280;3009;43.224;27.976;2022-07-17T02:18:52;100506.91;;;20.66;76.76
5966;BME280;3009;43.224;27.976;2022-07-17T02:21:20;100503.34;;;20.62;76.48
5966;BME280;3009;43.224;27.976;2022-07-17T02:23:49;100508.13;;;20.69;76.06
5966;BME280;3009;43.224;27.976;2022-07-17T02:26:17;100508.88;;;20.66;77.08
5966;BME280;3009;43.224;27.976;2022-07-17T02:28:47;100505.00;;;20.67;76.01
5966;BME280;3009;43.224;27.976;2022-07-17T02:31:15;100510.06;;;20.68;75.18
5966;BME280;3009;43.224;27.976;2022-07-17T02:33:43;100512.34;;;20.66;75.54
5966;BME280;3009;43.224;27.976;2022-07-17T02:36:12;100517.28;;;20.57;76.46
5966;BME280;3009;43.224;27.976;2022-07-17T02:38:40;100516.94;;;20.59;75.69
5966;BME280;3009;43.224;27.976;2022-07-17T02:41:08;100510.84;;;20.69;74.10
5966;BME280;3009;43.224;27.976;2022-07-17T02:43:36;100510.50;;;21.15;66.18
5966;BME280;3009;43.224;27.976;2022-07-17T02:46:07;100522.78;;;21.43;63.96
5966;BME280;3009;43.224;27.976;2022-07-17T02:48:35;100518.28;;;21.65;62.42
5966;BME280;3009;43.224;27.976;2022-07-17T02:51:03;100522.72;;;21.88;60.73
5966;BME280;3009;43.224;27.976;2022-07-17T02:53:33;100525.16;;;22.07;59.93
5966;BME280;3009;43.224;27.976;2022-07-17T02:56:01;100534.19;;;22.26;58.99
5966;BME280;3009;43.224;27.976;2022-07-17T02:58:30;100540.13;;;22.35;58.55
5966;BME280;3009;43.224;27.976;2022-07-17T03:00:58;100525.75;;;22.53;58.33
5966;BME280;3009;43.224;27.976;2022-07-17T03:03:28;100526.13;;;22.58;58.05
5966;BME280;3009;43.224;27.976;2022-07-17T03:05:57;100531.25;;;22.63;57.80
5966;BME280;3009;43.224;27.976;2022-07-17T03:08:25;100533.59;;;22.72;57.38
5966;BME280;3009;43.224;27.976;2022-07-17T03:10:53;100534.78;;;22.71;57.41
5966;BME280;3009;43.224;27.976;2022-07-17T03:13:22;100532.47;;;22.88;57.13
5966;BME280;3009;43.224;27.976;2022-07-17T03:15:50;100526.28;;;23.16;56.21
5966;BME280;3009;43.224;27.976;2022-07-17T03:18:18;100532.09;;;23.50;55.49
5966;BME280;3009;43.224;27.976;2022-07-17T03:20:48;100522.28;;;23.78;54.56
5966;BME280;3009;43.224;27.976;2022-07-17T03:23:16;100535.56;;;23.98;53.64
5966;BME280;3009;43.224;27.976;2022-07-17T03:25:44;100534.50;;;24.66;51.83
5966;BME280;3009;43.224;27.976;2022-07-17T03:28:13;100534.19;;;25.09;50.30
5966;BME280;3009;43.224;27.976;2022-07-17T03:30:41;100533.09;;;25.52;49.18
5966;BME280;3009;43.224;27.976;2022-07-17T03:33:09;100527.25;;;25.46;49.13
5966;BME280;3009;43.224;27.976;2022-07-17T03:35:37;100532.09;;;25.73;48.39
5966;BME280;3009;43.224;27.976;2022-07-17T03:38:07;100528.03;;;25.85;48.30
5966;BME280;3009;43.224;27.976;2022-07-17T03:40:35;100533.56;;;25.81;48.10
5966;BME280;3009;43.224;27.976;2022-07-17T03:43:04;100542.56;;;25.85;47.99
5966;BME280;3009;43.224;27.976;2022-07-17T03:45:33;100536.50;;;26.05;47.80
5966;BME280;3009;43.224;27.976;2022-07-17T03:48:01;100531.56;;;25.85;48.03
5966;BME280;3009;43.224;27.976;2022-07-17T03:50:30;100537.31;;;26.02;47.71
5966;BME280;3009;43.224;27.976;2022-07-17T03:52:58;100531.44;;;25.99;47.49
5966;BME280;3009;43.224;27.976;2022-07-17T03:55:28;100548.00;;;26.54;46.28
5966;BME280;3009;43.224;27.976;2022-07-17T03:57:56;100545.13;;;26.03;47.68
5966;BME280;3009;43.224;27.976;2022-07-17T04:00:24;100541.38;;;26.21;47.22
5966;BME280;3009;43.224;27.976;2022-07-17T04:02:53;100546.09;;;26.51;46.59
5966;BME280;3009;43.224;27.976;2022-07-17T04:05:21;100538.19;;;25.88;48.20
5966;BME280;3009;43.224;27.976;2022-07-17T04:07:49;100544.50;;;26.53;46.71
5966;BME280;3009;43.224;27.976;2022-07-17T04:10:17;100556.88;;;26.96;45.44
5966;BME280;3009;43.224;27.976;2022-07-17T04:12:47;100562.81;;;26.64;46.84
5966;BME280;3009;43.224;27.976;2022-07-17T04:15:15;100553.00;;;27.17;44.99
5966;BME280;3009;43.224;27.976;2022-07-17T04:18:04;100558.66;;;26.83;46.03
5966;BME280;3009;43.224;27.976;2022-07-17T04:20:32;100562.66;;;27.29;45.22
5966;BME280;3009;43.224;27.976;2022-07-17T04:23:01;100568.97;;;27.53;44.72
5966;BME280;3009;43.224;27.976;2022-07-17T04:25:29;100574.75;;;27.59;44.36
5966;BME280;3009;43.224;27.976;2022-07-17T04:27:59;100569.88;;;27.47;44.57
5966;BME280;3009;43.224;27.976;2022-07-17T04:30:28;100580.06;;;28.14;43.08
5966;BME280;3009;43.224;27.976;2022-07-17T04:32:57;100584.50;;;27.87;43.38
5966;BME280;3009;43.224;27.976;2022-07-17T04:35:25;100582.97;;;28.06;42.82
5966;BME280;3009;43.224;27.976;2022-07-17T04:37:54;100588.28;;;27.73;43.50
5966;BME280;3009;43.224;27.976;2022-07-17T04:40:23;100592.13;;;27.80;43.48
5966;BME280;3009;43.224;27.976;2022-07-17T04:42:51;100592.03;;;28.27;42.06
5966;BME280;3009;43.224;27.976;2022-07-17T04:45:21;100597.34;;;27.94;42.62
5966;BME280;3009;43.224;27.976;2022-07-17T04:47:50;100590.16;;;28.60;40.96
5966;BME280;3009;43.224;27.976;2022-07-17T04:50:18;100595.41;;;28.91;39.46
5966;BME280;3009;43.224;27.976;2022-07-17T04:52:47;100596.16;;;28.75;39.36
5966;BME280;3009;43.224;27.976;2022-07-17T04:55:15;100589.28;;;29.49;37.55
5966;BME280;3009;43.224;27.976;2022-07-17T04:57:44;100595.28;;;29.77;36.94
5966;BME280;3009;43.224;27.976;2022-07-17T05:00:13;100595.41;;;29.08;37.72
5966;BME280;3009;43.224;27.976;2022-07-17T05:02:43;100593.38;;;29.74;36.02
5966;BME280;3009;43.224;27.976;2022-07-17T05:05:11;100589.03;;;29.27;36.64
5966;BME280;3009;43.224;27.976;2022-07-17T05:07:40;100611.34;;;29.00;37.40
5966;BME280;3009;43.224;27.976;2022-07-17T05:10:09;100600.03;;;29.31;36.71
5966;BME280;3009;43.224;27.976;2022-07-17T05:12:37;100597.25;;;29.93;35.38
5966;BME280;3009;43.224;27.976;2022-07-17T05:15:06;100597.66;;;28.96;37.11
5966;BME280;3009;43.224;27.976;2022-07-17T05:17:34;100602.94;;;29.40;36.63
5966;BME280;3009;43.224;27.976;2022-07-17T05:20:06;100611.09;;;29.93;34.99
5966;BME280;3009;43.224;27.976;2022-07-17T05:22:34;100611.81;;;29.48;35.92
5966;BME280;3009;43.224;27.976;2022-07-17T05:25:03;100608.00;;;29.75;35.58
5966;BME280;3009;43.224;27.976;2022-07-17T05:27:31;100609.97;;;30.20;34.76
5966;BME280;3009;43.224;27.976;2022-07-17T05:30:00;100621.56;;;29.69;35.84
5966;BME280;3009;43.224;27.976;2022-07-17T05:32:28;100612.44;;;29.39;36.46
5966;BME280;3009;43.224;27.976;2022-07-17T05:34:57;100608.84;;;29.88;35.60
5966;BME280;3009;43.224;27.976;2022-07-17T05:37:27;100613.69;;;29.84;35.24
5966;BME280;3009;43.224;27.976;2022-07-17T05:39:55;100626.03;;;29.96;34.90
5966;BME280;3009;43.224;27.976;2022-07-17T05:42:24;100615.63;;;30.00;34.20
5966;BME280;3009;43.224;27.976;2022-07-17T05:44:56;100624.47;;;29.95;34.38
5966;BME280;3009;43.224;27.976;2022-07-17T05:47:25;100631.09;;;30.27;34.28
5966;BME280;3009;43.224;27.976;2022-07-17T05:49:55;100614.66;;;30.07;33.15
5966;BME280;3009;43.224;27.976;2022-07-17T05:52:23;100625.13;;;30.28;32.49
5966;BME280;3009;43.224;27.976;2022-07-17T05:54:53;100623.44;;;30.47;33.09
5966;BME280;3009;43.224;27.976;2022-07-17T05:57:21;100630.97;;;30.17;32.74
5966;BME280;3009;43.224;27.976;2022-07-17T05:59:49;100629.97;;;30.66;32.24
5966;BME280;3009;43.224;27.976;2022-07-17T06:02:18;100629.28;;;30.49;31.47
5966;BME280;3009;43.224;27.976;2022-07-17T06:04:47;100629.16;;;30.40;31.71
5966;BME280;3009;43.224;27.976;2022-07-17T06:07:15;100631.13;;;31.33;30.01
5966;BME280;3009;43.224;27.976;2022-07-17T06:09:43;100630.97;;;31.37;29.48
5966;BME280;3009;43.224;27.976;2022-07-17T06:12:13;100641.38;;;31.58;29.32
5966;BME280;3009;43.224;27.976;2022-07-17T06:14:41;100642.84;;;32.20;27.29
5966;BME280;3009;43.224;27.976;2022-07-17T06:17:09;100647.16;;;30.87;29.93
5966;BME280;3009;43.224;27.976;2022-07-17T06:19:38;100633.88;;;31.33;28.73
5966;BME280;3009;43.224;27.976;2022-07-17T06:22:06;100644.34;;;31.77;28.94
5966;BME280;3009;43.224;27.976;2022-07-17T06:24:34;100653.25;;;32.60;27.30
5966;BME280;3009;43.224;27.976;2022-07-17T06:27:02;100639.53;;;32.88;27.19
5966;BME280;3009;43.224;27.976;2022-07-17T06:29:32;100648.78;;;32.31;27.20
5966;BME280;3009;43.224;27.976;2022-07-17T06:32:00;100643.19;;;31.39;28.54
5966;BME280;3009;43.224;27.976;2022-07-17T06:34:28;100645.72;;;31.59;28.55
5966;BME280;3009;43.224;27.976;2022-07-17T06:36:56;100641.28;;;32.41;27.06
5966;BME280;3009;43.224;27.976;2022-07-17T06:39:25;100650.56;;;31.68;27.63
5966;BME280;3009;43.224;27.976;2022-07-17T06:41:53;100641.72;;;31.60;27.15
5966;BME280;3009;43.224;27.976;2022-07-17T06:44:21;100650.72;;;33.07;25.78
5966;BME280;3009;43.224;27.976;2022-07-17T06:46:51;100645.81;;;34.77;23.67
5966;BME280;3009;43.224;27.976;2022-07-17T06:49:19;100654.88;;;33.61;24.93
5966;BME280;3009;43.224;27.976;2022-07-17T06:51:47;100640.97;;;33.70;24.29
5966;BME280;3009;43.224;27.976;2022-07-17T06:54:16;100650.56;;;34.16;24.58
5966;BME280;3009;43.224;27.976;2022-07-17T06:56:44;100650.19;;;34.60;23.14
5966;BME280;3009;43.224;27.976;2022-07-17T06:59:12;100649.91;;;33.65;23.64
5966;BME280;3009;43.224;27.976;2022-07-17T07:01:40;100655.41;;;31.16;26.81
5966;BME280;3009;43.224;27.976;2022-07-17T07:04:11;100653.94;;;31.12;26.60
5966;BME280;3009;43.224;27.976;2022-07-17T07:06:39;100656.00;;;30.56;26.33
5966;BME280;3009;43.224;27.976;2022-07-17T07:09:08;100656.13;;;30.36;27.45
5966;BME280;3009;43.224;27.976;2022-07-17T07:11:42;100678.78;;;30.31;27.08
5966;BME280;3009;43.224;27.976;2022-07-17T07:14:11;100651.28;;;31.08;25.38
5966;BME280;3009;43.224;27.976;2022-07-17T07:16:39;100662.28;;;32.07;24.62
5966;BME280;3009;43.224;27.976;2022-07-17T07:19:07;100664.47;;;31.90;23.99
5966;BME280;3009;43.224;27.976;2022-07-17T07:21:37;100682.72;;;31.66;24.48
5966;BME280;3009;43.224;27.976;2022-07-17T07:24:06;100673.94;;;32.15;23.57
5966;BME280;3009;43.224;27.976;2022-07-17T07:26:34;100659.13;;;31.35;24.39
5966;BME280;3009;43.224;27.976;2022-07-17T07:29:02;100676.75;;;31.54;23.67
5966;BME280;3009;43.224;27.976;2022-07-17T07:31:31;100669.59;;;31.79;24.03
5966;BME280;3009;43.224;27.976;2022-07-17T07:33:59;100671.31;;;31.98;23.23
5966;BME280;3009;43.224;27.976;2022-07-17T07:36:27;100661.22;;;31.57;23.92
5966;BME280;3009;43.224;27.976;2022-07-17T07:38:57;100683.84;;;32.47;23.20
5966;BME280;3009;43.224;27.976;2022-07-17T07:41:26;100675.56;;;31.90;23.89
5966;BME280;3009;43.224;27.976;2022-07-17T07:43:55;100666.22;;;31.62;23.05
5966;BME280;3009;43.224;27.976;2022-07-17T07:46:23;100681.41;;;31.44;23.38
5966;BME280;3009;43.224;27.976;2022-07-17T07:48:52;100677.63;;;30.74;23.60
5966;BME280;3009;43.224;27.976;2022-07-17T07:51:20;100681.47;;;30.77;24.94
5966;BME280;3009;43.224;27.976;2022-07-17T07:54:10;100681.66;;;30.69;24.59
5966;BME280;3009;43.224;27.976;2022-07-17T07:56:38;100680.22;;;31.93;22.67
5966;BME280;3009;43.224;27.976;2022-07-17T07:59:06;100676.22;;;31.21;24.75
5966;BME280;3009;43.224;27.976;2022-07-17T08:01:34;100670.66;;;30.95;24.51
5966;BME280;3009;43.224;27.976;2022-07-17T08:04:03;100689.75;;;30.64;23.90
5966;BME280;3009;43.224;27.976;2022-07-17T08:06:31;100688.72;;;30.28;25.02
5966;BME280;3009;43.224;27.976;2022-07-17T08:08:59;100694.00;;;29.93;25.47
5966;BME280;3009;43.224;27.976;2022-07-17T08:11:29;100695.19;;;30.09;25.33
5966;BME280;3009;43.224;27.976;2022-07-17T08:13:57;100682.25;;;30.35;25.38
5966;BME280;3009;43.224;27.976;2022-07-17T08:16:34;100693.25;;;30.22;24.35
5966;BME280;3009;43.224;27.976;2022-07-17T08:19:02;100684.41;;;29.98;24.73
5966;BME280;3009;43.224;27.976;2022-07-17T08:21:30;100687.34;;;29.91;24.91
5966;BME280;3009;43.224;27.976;2022-07-17T08:23:59;100689.66;;;30.09;25.47
5966;BME280;3009;43.224;27.976;2022-07-17T08:26:28;100693.72;;;30.04;25.09
5966;BME280;3009;43.224;27.976;2022-07-17T08:28:57;100692.00;;;29.77;26.09
5966;BME280;3009;43.224;27.976;2022-07-17T08:31:25;100700.16;;;29.84;24.96
5966;BME280;3009;43.224;27.976;2022-07-17T08:33:53;100704.78;;;30.04;25.09
5966;BME280;3009;43.224;27.976;2022-07-17T08:36:22;100711.69;;;29.79;24.58
5966;BME280;3009;43.224;27.976;2022-07-17T08:38:50;100709.91;;;29.89;25.69
5966;BME280;3009;43.224;27.976;2022-07-17T08:41:19;100709.38;;;29.61;25.60
5966;BME280;3009;43.224;27.976;2022-07-17T08:43:50;100709.72;;;29.63;26.49
5966;BME280;3009;43.224;27.976;2022-07-17T08:46:23;100710.13;;;29.45;26.47
5966;BME280;3009;43.224;27.976;2022-07-17T08:48:56;100714.03;;;29.11;26.02
5966;BME280;3009;43.224;27.976;2022-07-17T08:51:26;100721.97;;;29.09;26.92
5966;BME280;3009;43.224;27.976;2022-07-17T08:53:56;100711.00;;;29.06;27.01
5966;BME280;3009;43.224;27.976;2022-07-17T08:56:25;100719.81;;;29.01;27.63
5966;BME280;3009;43.224;27.976;2022-07-17T08:58:55;100713.59;;;29.66;26.88
5966;BME280;3009;43.224;27.976;2022-07-17T09:01:23;100713.78;;;29.92;25.57
5966;BME280;3009;43.224;27.976;2022-07-17T09:03:58;100705.06;;;29.93;24.92
5966;BME280;3009;43.224;27.976;2022-07-17T09:06:27;100706.25;;;30.09;24.81
5966;BME280;3009;43.224;27.976;2022-07-17T09:09:06;100706.69;;;29.91;24.67
5966;BME280;3009;43.224;27.976;2022-07-17T09:11:44;100710.22;;;29.05;25.97
5966;BME280;3009;43.224;27.976;2022-07-17T09:14:15;100710.63;;;29.24;25.97
5966;BME280;3009;43.224;27.976;2022-07-17T09:16:49;100710.56;;;29.60;25.92
5966;BME280;3009;43.224;27.976;2022-07-17T09:19:29;100711.34;;;29.28;25.65
5966;BME280;3009;43.224;27.976;2022-07-17T09:22:10;100711.72;;;29.10;26.24
5966;BME280;3009;43.224;27.976;2022-07-17T09:24:45;100716.66;;;29.19;26.19
5966;BME280;3009;43.224;27.976;2022-07-17T09:27:16;100732.72;;;29.24;26.17
5966;BME280;3009;43.224;27.976;2022-07-17T09:30:00;100718.28;;;29.16;26.33
5966;BME280;3009;43.224;27.976;2022-07-17T09:32:31;100714.97;;;29.25;26.32
5966;BME280;3009;43.224;27.976;2022-07-17T09:35:02;100717.50;;;29.52;25.87
5966;BME280;3009;43.224;27.976;2022-07-17T09:37:32;100708.06;;;29.66;25.73
5966;BME280;3009;43.224;27.976;2022-07-17T09:40:01;100720.81;;;29.27;27.24
5966;BME280;3009;43.224;27.976;2022-07-17T09:42:32;100711.88;;;29.56;26.16
5966;BME280;3009;43.224;27.976;2022-07-17T09:45:04;100705.16;;;29.90;25.95
5966;BME280;3009;43.224;27.976;2022-07-17T09:47:35;100710.56;;;30.10;25.41
5966;BME280;3009;43.224;27.976;2022-07-17T09:50:05;100717.06;;;30.03;24.79
5966;BME280;3009;43.224;27.976;2022-07-17T09:52:36;100715.22;;;29.47;26.20
5966;BME280;3009;43.224;27.976;2022-07-17T09:55:05;100698.66;;;29.63;25.64
5966;BME280;3009;43.224;27.976;2022-07-17T09:57:54;100701.72;;;29.85;25.52
5966;BME280;3009;43.224;27.976;2022-07-17T10:00:25;100712.47;;;30.13;25.45
5966;BME280;3009;43.224;27.976;2022-07-17T10:02:53;100716.34;;;29.49;26.54
5966;BME280;3009;43.224;27.976;2022-07-17T10:05:22;100713.59;;;29.66;26.75
5966;BME280;3009;43.224;27.976;2022-07-17T10:07:51;100708.66;;;30.07;25.27
5966;BME280;3009;43.224;27.976;2022-07-17T10:10:19;100710.72;;;30.19;25.56
5966;BME280;3009;43.224;27.976;2022-07-17T10:12:49;100721.09;;;30.15;25.31
5966;BME280;3009;43.224;27.976;2022-07-17T10:15:18;100717.22;;;30.12;25.69
5966;BME280;3009;43.224;27.976;2022-07-17T10:18:03;100711.88;;;30.05;25.44
5966;BME280;3009;43.224;27.976;2022-07-17T10:20:31;100709.94;;;30.18;25.20
5966;BME280;3009;43.224;27.976;2022-07-17T10:23:10;100709.22;;;30.31;25.19
5966;BME280;3009;43.224;27.976;2022-07-17T10:25:42;100702.63;;;29.95;26.15
5966;BME280;3009;43.224;27.976;2022-07-17T10:28:10;100706.34;;;30.05;26.32
5966;BME280;3009;43.224;27.976;2022-07-17T10:30:42;100701.53;;;29.93;26.38
5966;BME280;3009;43.224;27.976;2022-07-17T10:33:16;100699.78;;;29.99;26.27
5966;BME280;3009;43.224;27.976;2022-07-17T10:35:47;100716.06;;;29.27;26.24
5966;BME280;3009;43.224;27.976;2022-07-17T10:38:15;100699.81;;;29.82;25.72
5966;BME280;3009;43.224;27.976;2022-07-17T10:40:44;100691.22;;;29.77;25.72
5966;BME280;3009;43.224;27.976;2022-07-17T10:43:12;100688.84;;;29.46;26.31
5966;BME280;3009;43.224;27.976;2022-07-17T10:45:42;100704.34;;;29.23;26.73
5966;BME280;3009;43.224;27.976;2022-07-17T10:48:12;100702.13;;;29.14;26.77
5966;BME280;3009;43.224;27.976;2022-07-17T10:50:44;100697.19;;;29.42;26.60
5966;BME280;3009;43.224;27.976;2022-07-17T10:53:15;100696.34;;;29.95;26.42
5966;BME280;3009;43.224;27.976;2022-07-17T10:55:52;100704.97;;;29.97;25.91
5966;BME280;3009;43.224;27.976;2022-07-17T10:58:24;100696.06;;;29.73;26.85
5966;BME280;3009;43.224;27.976;2022-07-17T11:01:09;100707.19;;;29.36;26.02
5966;BME280;3009;43.224;27.976;2022-07-17T11:03:41;100697.47;;;29.11;26.52
5966;BME280;3009;43.224;27.976;2022-07-17T11:06:13;100702.72;;;29.06;26.32
5966;BME280;3009;43.224;27.976;2022-07-17T11:08:44;100705.59;;;29.19;26.57
5966;BME280;3009;43.224;27.976;2022-07-17T11:11:14;100697.56;;;29.44;27.03
5966;BME280;3009;43.224;27.976;2022-07-17T11:13:53;100710.09;;;29.82;26.75
5966;BME280;3009;43.224;27.976;2022-07-17T11:16:28;100701.59;;;29.89;35.30
5966;BME280;3009;43.224;27.976;2022-07-17T11:18:58;100719.47;;;30.01;37.70
5966;BME280;3009;43.224;27.976;2022-07-17T11:21:28;100717.84;;;29.17;45.42
5966;BME280;3009;43.224;27.976;2022-07-17T11:23:56;100721.34;;;29.22;45.94
5966;BME280;3009;43.224;27.976;2022-07-17T11:26:25;100722.72;;;29.30;46.27
5966;BME280;3009;43.224;27.976;2022-07-17T11:28:55;100728.06;;;29.21;46.38
5966;BME280;3009;43.224;27.976;2022-07-17T11:31:28;100727.97;;;29.24;46.56
5966;BME280;3009;43.224;27.976;2022-07-17T11:33:59;100737.25;;;29.34;47.00
5966;BME280;3009;43.224;27.976;2022-07-17T11:36:32;100735.78;;;29.46;46.69
5966;BME280;3009;43.224;27.976;2022-07-17T11:39:02;100734.59;;;29.80;47.62
5966;BME280;3009;43.224;27.976;2022-07-17T11:41:33;100731.81;;;29.80;45.58
5966;BME280;3009;43.224;27.976;2022-07-17T11:44:02;100738.50;;;29.82;44.03
5966;BME280;3009;43.224;27.976;2022-07-17T11:46:31;100736.63;;;29.06;45.10
5966;BME280;3009;43.224;27.976;2022-07-17T11:49:00;100732.00;;;29.20;45.62
5966;BME280;3009;43.224;27.976;2022-07-17T11:51:38;100725.94;;;29.08;47.16
5966;BME280;3009;43.224;27.976;2022-07-17T11:54:08;100730.00;;;29.40;46.46
5966;BME280;3009;43.224;27.976;2022-07-17T11:56:38;100730.03;;;29.00;44.27
5966;BME280;3009;43.224;27.976;2022-07-17T11:59:06;100721.97;;;29.09;45.95
5966;BME280;3009;43.224;27.976;2022-07-17T12:01:40;100721.69;;;29.24;46.41
5966;BME280;3009;43.224;27.976;2022-07-17T12:04:10;100721.03;;;29.16;47.16
5966;BME280;3009;43.224;27.976;2022-07-17T12:06:46;100716.53;;;29.42;46.47
5966;BME280;3009;43.224;27.976;2022-07-17T12:09:28;100720.13;;;29.23;46.60
5966;BME280;3009;43.224;27.976;2022-07-17T12:11:56;100718.00;;;29.10;45.69
5966;BME280;3009;43.224;27.976;2022-07-17T12:14:24;100727.31;;;28.80;45.52
5966;BME280;3009;43.224;27.976;2022-07-17T12:16:56;100724.22;;;28.78;46.19
5966;BME280;3009;43.224;27.976;2022-07-17T12:19:28;100725.19;;;28.88;46.50
5966;BME280;3009;43.224;27.976;2022-07-17T12:22:00;100731.75;;;28.94;45.49
5966;BME280;3009;43.224;27.976;2022-07-17T12:24:32;100728.50;;;28.15;46.94
5966;BME280;3009;43.224;27.976;2022-07-17T12:27:02;100722.16;;;28.38;45.93
5966;BME280;3009;43.224;27.976;2022-07-17T12:29:31;100723.94;;;28.49;46.83
5966;BME280;3009;43.224;27.976;2022-07-17T12:32:02;100729.22;;;28.63;45.72
5966;BME280;3009;43.224;27.976;2022-07-17T12:34:30;100726.91;;;28.61;46.41
5966;BME280;3009;43.224;27.976;2022-07-17T12:37:00;100726.56;;;28.56;46.41
5966;BME280;3009;43.224;27.976;2022-07-17T12:39:29;100723.50;;;28.74;46.85
5966;BME280;3009;43.224;27.976;2022-07-17T12:41:57;100725.84;;;28.52;46.29
5966;BME280;3009;43.224;27.976;2022-07-17T12:44:26;100730.47;;;28.58;46.81
5966;BME280;3009;43.224;27.976;2022-07-17T12:46:54;100732.84;;;28.60;47.37
5966;BME280;3009;43.224;27.976;2022-07-17T12:49:23;100737.72;;;28.72;47.74
5966;BME280;3009;43.224;27.976;2022-07-17T12:51:52;100736.53;;;28.50;43.73
5966;BME280;3009;43.224;27.976;2022-07-17T12:54:22;100742.28;;;28.59;45.12
5966;BME280;3009;43.224;27.976;2022-07-17T12:56:50;100730.94;;;28.33;46.04
5966;BME280;3009;43.224;27.976;2022-07-17T12:59:19;100734.06;;;27.88;47.18
5966;BME280;3009;43.224;27.976;2022-07-17T13:01:48;100727.03;;;27.01;49.52
5966;BME280;3009;43.224;27.976;2022-07-17T13:04:17;100733.81;;;27.24;50.01
5966;BME280;3009;43.224;27.976;2022-07-17T13:06:47;100731.28;;;27.37;50.52
5966;BME280;3009;43.224;27.976;2022-07-17T13:09:18;100725.44;;;27.31;50.63
5966;BME280;3009;43.224;27.976;2022-07-17T13:11:47;100721.72;;;27.45;50.04
5966;BME280;3009;43.224;27.976;2022-07-17T13:14:18;100732.06;;;27.65;49.43